sensor_id;sensor_type;location;lat;lon;timestamp;pressure;altitude;pressure_sealevel;temperature
15144;BMP180;7672;50.834;6.286;2023-05-07T00:00:42;99717.56;;;17.43
15144;BMP180;7672;50.834;6.286;2023-05-07T00:03:09;99722.75;;;17.40
15144;BMP180;7672;50.834;6.286;2023-05-07T00:05:38;99714.28;;;17.38
15144;BMP180;7672;50.834;6.286;2023-05-07T00:08:06;99722.03;;;17.35
15144;BMP180;7672;50.834;6.286;2023-05-07T00:10:34;99718.69;;;17.32
15144;BMP180;7672;50.834;6.286;2023-05-07T00:13:01;99715.41;;;17.27
15144;BMP180;7672;50.834;6.286;2023-05-07T00:15:29;99714.56;;;17.25
15144;BMP180;7672;50.834;6.286;2023-05-07T00:17:56;99716.34;;;17.21
15144;BMP180;7672;50.834;6.286;2023-05-07T00:20:30;99708.75;;;17.18
15144;BMP180;7672;50.834;6.286;2023-05-07T00:22:58;99710.44;;;17.19
15144;BMP180;7672;50.834;6.286;2023-05-07T00:25:25;99714.66;;;17.20
15144;BMP180;7672;50.834;6.286;2023-05-07T00:27:56;99709.56;;;17.20
15144;BMP180;7672;50.834;6.286;2023-05-07T00:30:26;99708.59;;;17.26
15144;BMP180;7672;50.834;6.286;2023-05-07T00:32:54;99704.28;;;17.29
15144;BMP180;7672;50.834;6.286;2023-05-07T00:35:22;99706.75;;;17.34
15144;BMP180;7672;50.834;6.286;2023-05-07T00:37:50;99700.72;;;17.36
15144;BMP180;7672;50.834;6.286;2023-05-07T00:40:18;99706.63;;;17.38
15144;BMP180;7672;50.834;6.286;2023-05-07T00:42:46;99704.03;;;17.39
15144;BMP180;7672;50.834;6.286;2023-05-07T00:45:16;99704.84;;;17.41
15144;BMP180;7672;50.834;6.286;2023-05-07T00:47:44;99698.84;;;17.42
15144;BMP180;7672;50.834;6.286;2023-05-07T00:50:13;99694.53;;;17.44
15144;BMP180;7672;50.834;6.286;2023-05-07T00:52:41;99708.97;;;17.47
15144;BMP180;7672;50.834;6.286;2023-05-07T00:55:09;99692.72;;;17.49
15144;BMP180;7672;50.834;6.286;2023-05-07T00:57:39;99686.75;;;17.50
15144;BMP180;7672;50.834;6.286;2023-05-07T01:00:09;99693.50;;;17.53
15144;BMP180;7672;50.834;6.286;2023-05-07T01:02:39;99690.03;;;17.55
15144;BMP180;7672;50.834;6.286;2023-05-07T01:05:15;99693.41;;;17.56
15144;BMP180;7672;50.834;6.286;2023-05-07T01:07:43;99695.09;;;17.57
15144;BMP180;7672;50.834;6.286;2023-05-07T01:10:12;99689.16;;;17.56
15144;BMP180;7672;50.834;6.286;2023-05-07T01:12:40;99694.28;;;17.56
15144;BMP180;7672;50.834;6.286;2023-05-07T01:15:10;99691.72;;;17.56
15144;BMP180;7672;50.834;6.286;2023-05-07T01:17:40;99689.97;;;17.57
15144;BMP180;7672;50.834;6.286;2023-05-07T01:20:15;99690.78;;;17.59
15144;BMP180;7672;50.834;6.286;2023-05-07T01:22:45;99687.44;;;17.57
15144;BMP180;7672;50.834;6.286;2023-05-07T01:25:13;99687.38;;;17.58
15144;BMP180;7672;50.834;6.286;2023-05-07T01:27:47;99683.16;;;17.57
15144;BMP180;7672;50.834;6.286;2023-05-07T01:30:15;99680.63;;;17.56
15144;BMP180;7672;50.834;6.286;2023-05-07T01:32:56;99685.75;;;17.56
15144;BMP180;7672;50.834;6.286;2023-05-07T01:35:40;99686.59;;;17.55
15144;BMP180;7672;50.834;6.286;2023-05-07T01:38:08;99683.28;;;17.53
15144;BMP180;7672;50.834;6.286;2023-05-07T01:40:36;99678.16;;;17.53
15144;BMP180;7672;50.834;6.286;2023-05-07T01:43:03;99685.00;;;17.51
15144;BMP180;7672;50.834;6.286;2023-05-07T01:45:33;99676.56;;;17.49
15144;BMP180;7672;50.834;6.286;2023-05-07T01:48:07;99677.47;;;17.46
15144;BMP180;7672;50.834;6.286;2023-05-07T01:50:37;99678.44;;;17.41
15144;BMP180;7672;50.834;6.286;2023-05-07T01:53:04;99681.91;;;17.38
15144;BMP180;7672;50.834;6.286;2023-05-07T01:55:32;99678.59;;;17.35
15144;BMP180;7672;50.834;6.286;2023-05-07T01:58:00;99676.00;;;17.36
15144;BMP180;7672;50.834;6.286;2023-05-07T02:00:28;99673.50;;;17.35
15144;BMP180;7672;50.834;6.286;2023-05-07T02:02:57;99671.03;;;17.31
15144;BMP180;7672;50.834;6.286;2023-05-07T02:05:36;99673.72;;;17.26
15144;BMP180;7672;50.834;6.286;2023-05-07T02:08:11;99676.31;;;17.22
15144;BMP180;7672;50.834;6.286;2023-05-07T02:10:39;99678.94;;;17.19
15144;BMP180;7672;50.834;6.286;2023-05-07T02:13:06;99673.16;;;17.12
15144;BMP180;7672;50.834;6.286;2023-05-07T02:15:33;99668.94;;;17.10
15144;BMP180;7672;50.834;6.286;2023-05-07T02:18:08;99673.28;;;17.06
15144;BMP180;7672;50.834;6.286;2023-05-07T02:20:36;99679.31;;;17.02
15144;BMP180;7672;50.834;6.286;2023-05-07T02:23:03;99678.50;;;17.00
15144;BMP180;7672;50.834;6.286;2023-05-07T02:25:31;99678.56;;;16.97
15144;BMP180;7672;50.834;6.286;2023-05-07T02:27:59;99671.88;;;16.93
15144;BMP180;7672;50.834;6.286;2023-05-07T02:30:49;99682.13;;;16.92
15144;BMP180;7672;50.834;6.286;2023-05-07T02:33:16;99685.50;;;16.92
15144;BMP180;7672;50.834;6.286;2023-05-07T02:35:44;99690.59;;;16.92
15144;BMP180;7672;50.834;6.286;2023-05-07T02:38:14;99686.31;;;16.94
15144;BMP180;7672;50.834;6.286;2023-05-07T02:40:41;99685.41;;;16.95
15144;BMP180;7672;50.834;6.286;2023-05-07T02:43:09;99686.25;;;16.97
15144;BMP180;7672;50.834;6.286;2023-05-07T02:45:36;99684.56;;;16.96
15144;BMP180;7672;50.834;6.286;2023-05-07T02:48:06;99686.25;;;16.97
15144;BMP180;7672;50.834;6.286;2023-05-07T02:50:34;99683.69;;;16.97
15144;BMP180;7672;50.834;6.286;2023-05-07T02:53:02;99688.75;;;16.99
15144;BMP180;7672;50.834;6.286;2023-05-07T02:55:33;99690.38;;;17.03
15144;BMP180;7672;50.834;6.286;2023-05-07T02:58:01;99685.22;;;17.04
15144;BMP180;7672;50.834;6.286;2023-05-07T03:00:32;99683.53;;;17.05
15144;BMP180;7672;50.834;6.286;2023-05-07T03:03:22;99693.69;;;17.06
15144;BMP180;7672;50.834;6.286;2023-05-07T03:05:50;99685.97;;;17.09
15144;BMP180;7672;50.834;6.286;2023-05-07T03:08:17;99683.34;;;17.12
15144;BMP180;7672;50.834;6.286;2023-05-07T03:10:44;99685.00;;;17.15
15144;BMP180;7672;50.834;6.286;2023-05-07T03:13:11;99682.44;;;17.15
15144;BMP180;7672;50.834;6.286;2023-05-07T03:15:39;99684.09;;;17.17
15144;BMP180;7672;50.834;6.286;2023-05-07T03:18:06;99682.41;;;17.16
15144;BMP180;7672;50.834;6.286;2023-05-07T03:20:33;99677.34;;;17.15
15144;BMP180;7672;50.834;6.286;2023-05-07T03:23:00;99673.94;;;17.14
15144;BMP180;7672;50.834;6.286;2023-05-07T03:25:28;99679.03;;;17.14
15144;BMP180;7672;50.834;6.286;2023-05-07T03:27:56;99675.69;;;17.12
15144;BMP180;7672;50.834;6.286;2023-05-07T03:30:28;99666.34;;;17.11
15144;BMP180;7672;50.834;6.286;2023-05-07T03:32:55;99664.66;;;17.10
15144;BMP180;7672;50.834;6.286;2023-05-07T03:35:22;99665.53;;;17.09
15144;BMP180;7672;50.834;6.286;2023-05-07T03:37:49;99657.13;;;17.06
15144;BMP180;7672;50.834;6.286;2023-05-07T03:40:17;99660.59;;;17.03
15144;BMP180;7672;50.834;6.286;2023-05-07T03:42:48;99658.13;;;16.99
15144;BMP180;7672;50.834;6.286;2023-05-07T03:45:18;99654.00;;;16.93
15144;BMP180;7672;50.834;6.286;2023-05-07T03:47:51;99651.53;;;16.89
15144;BMP180;7672;50.834;6.286;2023-05-07T03:50:20;99672.00;;;16.87
15144;BMP180;7672;50.834;6.286;2023-05-07T03:52:47;99666.09;;;16.84
15144;BMP180;7672;50.834;6.286;2023-05-07T03:55:16;99672.97;;;16.82
15144;BMP180;7672;50.834;6.286;2023-05-07T03:57:49;99675.56;;;16.79
15144;BMP180;7672;50.834;6.286;2023-05-07T04:00:18;99670.53;;;16.76
15144;BMP180;7672;50.834;6.286;2023-05-07T04:02:46;99667.97;;;16.76
15144;BMP180;7672;50.834;6.286;2023-05-07T04:05:17;99681.56;;;16.78
15144;BMP180;7672;50.834;6.286;2023-05-07T04:07:47;99680.66;;;16.79
15144;BMP180;7672;50.834;6.286;2023-05-07T04:10:18;99683.16;;;16.83
15144;BMP180;7672;50.834;6.286;2023-05-07T04:12:48;99682.31;;;16.83
15144;BMP180;7672;50.834;6.286;2023-05-07T04:15:19;99688.25;;;16.83
15144;BMP180;7672;50.834;6.286;2023-05-07T04:17:47;99680.59;;;16.83
15144;BMP180;7672;50.834;6.286;2023-05-07T04:20:16;99684.00;;;16.82
15144;BMP180;7672;50.834;6.286;2023-05-07T04:22:49;99683.09;;;16.85
15144;BMP180;7672;50.834;6.286;2023-05-07T04:25:16;99682.19;;;16.87
15144;BMP180;7672;50.834;6.286;2023-05-07T04:27:44;99683.03;;;16.89
15144;BMP180;7672;50.834;6.286;2023-05-07T04:30:12;99686.31;;;16.94
15144;BMP180;7672;50.834;6.286;2023-05-07T04:32:40;99681.09;;;16.99
15144;BMP180;7672;50.834;6.286;2023-05-07T04:35:07;99672.53;;;17.01
15144;BMP180;7672;50.834;6.286;2023-05-07T04:37:35;99670.72;;;17.06
15144;BMP180;7672;50.834;6.286;2023-05-07T04:40:02;99670.63;;;17.09
15144;BMP180;7672;50.834;6.286;2023-05-07T04:42:30;99677.34;;;17.15
15144;BMP180;7672;50.834;6.286;2023-05-07T04:44:59;99669.63;;;17.16
15144;BMP180;7672;50.834;6.286;2023-05-07T04:47:27;99679.78;;;17.19
15144;BMP180;7672;50.834;6.286;2023-05-07T04:49:54;99673.75;;;17.22
15144;BMP180;7672;50.834;6.286;2023-05-07T04:52:21;99679.69;;;17.25
15144;BMP180;7672;50.834;6.286;2023-05-07T04:54:48;99683.91;;;17.26
15144;BMP180;7672;50.834;6.286;2023-05-07T04:57:16;99683.84;;;17.29
15144;BMP180;7672;50.834;6.286;2023-05-07T04:59:44;99677.00;;;17.31
15144;BMP180;7672;50.834;6.286;2023-05-07T05:02:11;99686.25;;;17.35
15144;BMP180;7672;50.834;6.286;2023-05-07T05:04:38;99681.94;;;17.37
15144;BMP180;7672;50.834;6.286;2023-05-07T05:07:06;99682.72;;;17.40
15144;BMP180;7672;50.834;6.286;2023-05-07T05:09:33;99680.84;;;17.47
15144;BMP180;7672;50.834;6.286;2023-05-07T05:12:00;99684.97;;;17.52
15144;BMP180;7672;50.834;6.286;2023-05-07T05:14:29;99690.81;;;17.57
15144;BMP180;7672;50.834;6.286;2023-05-07T05:16:56;99696.59;;;17.65
15144;BMP180;7672;50.834;6.286;2023-05-07T05:19:23;99695.47;;;17.77
15144;BMP180;7672;50.834;6.286;2023-05-07T05:21:50;99695.22;;;17.86
15144;BMP180;7672;50.834;6.286;2023-05-07T05:24:17;99703.50;;;17.95
15144;BMP180;7672;50.834;6.286;2023-05-07T05:26:44;99705.84;;;18.02
15144;BMP180;7672;50.834;6.286;2023-05-07T05:29:12;99705.66;;;18.10
15144;BMP180;7672;50.834;6.286;2023-05-07T05:31:41;99708.00;;;18.19
15144;BMP180;7672;50.834;6.286;2023-05-07T05:34:09;99707.78;;;18.28
15144;BMP180;7672;50.834;6.286;2023-05-07T05:36:37;99706.66;;;18.38
15144;BMP180;7672;50.834;6.286;2023-05-07T05:39:04;99710.66;;;18.48
15144;BMP180;7672;50.834;6.286;2023-05-07T05:41:31;99700.97;;;18.57
15144;BMP180;7672;50.834;6.286;2023-05-07T05:43:58;99707.53;;;18.67
15144;BMP180;7672;50.834;6.286;2023-05-07T05:46:25;99713.25;;;18.76
15144;BMP180;7672;50.834;6.286;2023-05-07T05:48:53;99713.03;;;18.84
15144;BMP180;7672;50.834;6.286;2023-05-07T05:51:21;99709.38;;;18.91
15144;BMP180;7672;50.834;6.286;2023-05-07T05:53:48;99712.59;;;18.97
15144;BMP180;7672;50.834;6.286;2023-05-07T05:56:16;99715.88;;;19.02
15144;BMP180;7672;50.834;6.286;2023-05-07T05:58:43;99704.63;;;19.08
15144;BMP180;7672;50.834;6.286;2023-05-07T06:01:10;99716.38;;;19.15
15144;BMP180;7672;50.834;6.286;2023-05-07T06:03:38;99716.22;;;19.21
15144;BMP180;7672;50.834;6.286;2023-05-07T06:06:11;99709.19;;;19.27
15144;BMP180;7672;50.834;6.286;2023-05-07T06:08:38;99718.25;;;19.37
15144;BMP180;7672;50.834;6.286;2023-05-07T06:11:06;99722.25;;;19.45
15144;BMP180;7672;50.834;6.286;2023-05-07T06:13:36;99719.41;;;19.54
15144;BMP180;7672;50.834;6.286;2023-05-07T06:16:04;99714.88;;;19.62
15144;BMP180;7672;50.834;6.286;2023-05-07T06:18:31;99712.22;;;19.65
15144;BMP180;7672;50.834;6.286;2023-05-07T06:20:58;99723.09;;;19.72
15144;BMP180;7672;50.834;6.286;2023-05-07T06:23:29;99718.66;;;19.77
15144;BMP180;7672;50.834;6.286;2023-05-07T06:25:56;99722.00;;;19.79
15144;BMP180;7672;50.834;6.286;2023-05-07T06:28:28;99726.19;;;19.83
15144;BMP180;7672;50.834;6.286;2023-05-07T06:31:15;99720.66;;;19.94
15144;BMP180;7672;50.834;6.286;2023-05-07T06:33:49;99733.00;;;20.09
15144;BMP180;7672;50.834;6.286;2023-05-07T06:36:17;99728.97;;;20.27
15144;BMP180;7672;50.834;6.286;2023-05-07T06:38:44;99729.97;;;20.46
15144;BMP180;7672;50.834;6.286;2023-05-07T06:41:11;99725.00;;;20.65
15144;BMP180;7672;50.834;6.286;2023-05-07T06:43:38;99724.31;;;20.85
15144;BMP180;7672;50.834;6.286;2023-05-07T06:46:44;99725.00;;;21.11
15144;BMP180;7672;50.834;6.286;2023-05-07T06:49:13;99722.34;;;21.35
15144;BMP180;7672;50.834;6.286;2023-05-07T06:51:41;99714.97;;;21.90
15144;BMP180;7672;50.834;6.286;2023-05-07T06:54:08;99727.84;;;22.10
15144;BMP180;7672;50.834;6.286;2023-05-07T06:56:37;99726.22;;;22.29
15144;BMP180;7672;50.834;6.286;2023-05-07T06:59:06;99728.88;;;22.46
15144;BMP180;7672;50.834;6.286;2023-05-07T07:01:37;99720.34;;;22.64
15144;BMP180;7672;50.834;6.286;2023-05-07T07:04:06;99726.38;;;22.83
15144;BMP180;7672;50.834;6.286;2023-05-07T07:06:34;99719.72;;;22.97
15144;BMP180;7672;50.834;6.286;2023-05-07T07:09:05;99726.91;;;23.09
15144;BMP180;7672;50.834;6.286;2023-05-07T07:11:32;99726.47;;;23.18
15144;BMP180;7672;50.834;6.286;2023-05-07T07:13:59;99731.38;;;23.24
15144;BMP180;7672;50.834;6.286;2023-05-07T07:16:29;99730.06;;;23.32
15144;BMP180;7672;50.834;6.286;2023-05-07T07:18:57;99729.81;;;23.38
15144;BMP180;7672;50.834;6.286;2023-05-07T07:21:24;99738.25;;;23.42
15144;BMP180;7672;50.834;6.286;2023-05-07T07:23:52;99740.28;;;23.35
15144;BMP180;7672;50.834;6.286;2023-05-07T07:26:20;99737.19;;;23.27
15144;BMP180;7672;50.834;6.286;2023-05-07T07:28:47;99731.28;;;23.25
15144;BMP180;7672;50.834;6.286;2023-05-07T07:31:18;99731.28;;;23.25
15144;BMP180;7672;50.834;6.286;2023-05-07T07:33:47;99731.28;;;23.25
15144;BMP180;7672;50.834;6.286;2023-05-07T07:36:15;99733.78;;;23.27
15144;BMP180;7672;50.834;6.286;2023-05-07T07:38:42;99739.50;;;23.33
15144;BMP180;7672;50.834;6.286;2023-05-07T07:41:09;99742.00;;;23.35
15144;BMP180;7672;50.834;6.286;2023-05-07T07:43:36;99737.38;;;23.41
15144;BMP180;7672;50.834;6.286;2023-05-07T07:46:04;99740.47;;;23.49
15144;BMP180;7672;50.834;6.286;2023-05-07T07:48:32;99742.72;;;23.55
15144;BMP180;7672;50.834;6.286;2023-05-07T07:50:59;99738.06;;;23.63
15144;BMP180;7672;50.834;6.286;2023-05-07T07:53:26;99736.94;;;23.68
15144;BMP180;7672;50.834;6.286;2023-05-07T07:55:58;99743.44;;;23.77
15144;BMP180;7672;50.834;6.286;2023-05-07T07:58:55;99739.72;;;23.82
15144;BMP180;7672;50.834;6.286;2023-05-07T08:01:22;99743.69;;;23.89
15144;BMP180;7672;50.834;6.286;2023-05-07T08:03:50;99735.53;;;23.97
15144;BMP180;7672;50.834;6.286;2023-05-07T08:06:18;99739.56;;;24.02
15144;BMP180;7672;50.834;6.286;2023-05-07T08:08:45;99746.00;;;24.11
15144;BMP180;7672;50.834;6.286;2023-05-07T08:11:13;99745.72;;;24.17
15144;BMP180;7672;50.834;6.286;2023-05-07T08:13:40;99740.38;;;24.20
15144;BMP180;7672;50.834;6.286;2023-05-07T08:16:07;99742.06;;;24.21
15144;BMP180;7672;50.834;6.286;2023-05-07T08:18:35;99750.41;;;24.26
15144;BMP180;7672;50.834;6.286;2023-05-07T08:21:03;99744.34;;;24.27
15144;BMP180;7672;50.834;6.286;2023-05-07T08:23:31;99744.25;;;24.28
15144;BMP180;7672;50.834;6.286;2023-05-07T08:25:58;99745.66;;;24.35
15144;BMP180;7672;50.834;6.286;2023-05-07T08:28:26;99746.81;;;24.46
15144;BMP180;7672;50.834;6.286;2023-05-07T08:30:53;99757.41;;;24.57
15144;BMP180;7672;50.834;6.286;2023-05-07T08:33:20;99757.13;;;24.79
15144;BMP180;7672;50.834;6.286;2023-05-07T08:35:47;99746.00;;;24.93
15144;BMP180;7672;50.834;6.286;2023-05-07T08:38:15;99747.72;;;25.10
15144;BMP180;7672;50.834;6.286;2023-05-07T08:40:42;99748.47;;;25.27
15144;BMP180;7672;50.834;6.286;2023-05-07T08:43:15;99760.91;;;25.52
15144;BMP180;7672;50.834;6.286;2023-05-07T08:45:45;99750.72;;;25.79
15144;BMP180;7672;50.834;6.286;2023-05-07T08:48:17;99757.56;;;26.10
15144;BMP180;7672;50.834;6.286;2023-05-07T08:50:53;99748.13;;;26.38
15144;BMP180;7672;50.834;6.286;2023-05-07T08:53:20;99749.81;;;26.67
15144;BMP180;7672;50.834;6.286;2023-05-07T08:55:49;99748.03;;;26.95
15144;BMP180;7672;50.834;6.286;2023-05-07T08:58:17;99750.47;;;27.66
15144;BMP180;7672;50.834;6.286;2023-05-07T09:00:44;99744.75;;;28.75
15144;BMP180;7672;50.834;6.286;2023-05-07T09:03:11;99744.97;;;30.03
15144;BMP180;7672;50.834;6.286;2023-05-07T09:05:41;99741.66;;;31.44
15144;BMP180;7672;50.834;6.286;2023-05-07T09:08:15;99739.69;;;32.81
15144;BMP180;7672;50.834;6.286;2023-05-07T09:10:45;99741.88;;;33.92
15144;BMP180;7672;50.834;6.286;2023-05-07T09:13:12;99741.28;;;35.00
15144;BMP180;7672;50.834;6.286;2023-05-07T09:15:41;99744.56;;;36.08
15144;BMP180;7672;50.834;6.286;2023-05-07T09:18:09;99745.34;;;37.02
15144;BMP180;7672;50.834;6.286;2023-05-07T09:20:39;99743.41;;;37.69
15144;BMP180;7672;50.834;6.286;2023-05-07T09:23:08;99743.16;;;38.19
15144;BMP180;7672;50.834;6.286;2023-05-07T09:25:37;99745.94;;;38.41
15144;BMP180;7672;50.834;6.286;2023-05-07T09:28:11;99751.38;;;38.56
15144;BMP180;7672;50.834;6.286;2023-05-07T09:30:38;99750.25;;;38.27
15144;BMP180;7672;50.834;6.286;2023-05-07T09:33:08;99745.78;;;37.87
15144;BMP180;7672;50.834;6.286;2023-05-07T09:35:39;99760.75;;;37.87
15144;BMP180;7672;50.834;6.286;2023-05-07T09:38:12;99760.47;;;38.22
15144;BMP180;7672;50.834;6.286;2023-05-07T09:40:40;99757.59;;;38.79
15144;BMP180;7672;50.834;6.286;2023-05-07T09:43:13;99745.63;;;39.37
15144;BMP180;7672;50.834;6.286;2023-05-07T09:45:50;99745.16;;;39.86
15144;BMP180;7672;50.834;6.286;2023-05-07T09:48:20;99750.09;;;40.11
15144;BMP180;7672;50.834;6.286;2023-05-07T09:50:55;99755.66;;;40.16
15144;BMP180;7672;50.834;6.286;2023-05-07T09:53:30;99746.31;;;39.61
15144;BMP180;7672;50.834;6.286;2023-05-07T09:56:00;99753.41;;;38.84
15144;BMP180;7672;50.834;6.286;2023-05-07T09:58:33;99750.53;;;37.92
15144;BMP180;7672;50.834;6.286;2023-05-07T10:01:02;99746.81;;;36.96
15144;BMP180;7672;50.834;6.286;2023-05-07T10:03:32;99746.91;;;35.93
15144;BMP180;7672;50.834;6.286;2023-05-07T10:06:04;99744.28;;;35.05
15144;BMP180;7672;50.834;6.286;2023-05-07T10:08:32;99748.91;;;34.29
15144;BMP180;7672;50.834;6.286;2023-05-07T10:11:03;99746.16;;;33.65
15144;BMP180;7672;50.834;6.286;2023-05-07T10:13:33;99740.88;;;33.07
15144;BMP180;7672;50.834;6.286;2023-05-07T10:16:06;99747.41;;;32.53
15144;BMP180;7672;50.834;6.286;2023-05-07T10:18:41;99743.25;;;31.98
15144;BMP180;7672;50.834;6.286;2023-05-07T10:21:19;99744.75;;;31.49
15144;BMP180;7672;50.834;6.286;2023-05-07T10:23:59;99747.66;;;31.03
15144;BMP180;7672;50.834;6.286;2023-05-07T10:26:29;99753.66;;;30.60
15144;BMP180;7672;50.834;6.286;2023-05-07T10:29:06;99759.81;;;30.13
15144;BMP180;7672;50.834;6.286;2023-05-07T10:32:37;99759.91;;;29.54
15144;BMP180;7672;50.834;6.286;2023-05-07T10:35:19;99758.41;;;29.15
15144;BMP180;7672;50.834;6.286;2023-05-07T10:37:49;99765.94;;;28.82
15144;BMP180;7672;50.834;6.286;2023-05-07T10:40:17;99762.94;;;28.51
15144;BMP180;7672;50.834;6.286;2023-05-07T10:42:57;99755.41;;;28.21
15144;BMP180;7672;50.834;6.286;2023-05-07T10:45:29;99758.56;;;28.00
15144;BMP180;7672;50.834;6.286;2023-05-07T10:48:16;99765.78;;;27.83
15144;BMP180;7672;50.834;6.286;2023-05-07T10:51:21;99762.88;;;27.75
15144;BMP180;7672;50.834;6.286;2023-05-07T10:56:41;99762.47;;;28.19
15144;BMP180;7672;50.834;6.286;2023-05-07T11:01:58;99765.09;;;28.19
15144;BMP180;7672;50.834;6.286;2023-05-07T11:04:35;99765.66;;;28.10
15144;BMP180;7672;50.834;6.286;2023-05-07T11:07:29;99762.91;;;28.00
15144;BMP180;7672;50.834;6.286;2023-05-07T11:10:02;99765.84;;;27.95
15144;BMP180;7672;50.834;6.286;2023-05-07T11:15:38;99762.22;;;27.71
15144;BMP180;7672;50.834;6.286;2023-05-07T11:18:53;99757.41;;;27.65
15144;BMP180;7672;50.834;6.286;2023-05-07T11:21:41;99760.94;;;27.64
15144;BMP180;7672;50.834;6.286;2023-05-07T11:24:21;99758.25;;;27.66
15144;BMP180;7672;50.834;6.286;2023-05-07T11:26:56;99758.88;;;27.69
15144;BMP180;7672;50.834;6.286;2023-05-07T11:29:25;99762.22;;;27.71
15144;BMP180;7672;50.834;6.286;2023-05-07T11:31:57;99764.81;;;27.71
15144;BMP180;7672;50.834;6.286;2023-05-07T11:34:29;99764.81;;;27.71
15144;BMP180;7672;50.834;6.286;2023-05-07T11:36:58;99766.56;;;27.71
15144;BMP180;7672;50.834;6.286;2023-05-07T11:40:02;99765.41;;;27.62
15144;BMP180;7672;50.834;6.286;2023-05-07T11:42:31;99769.28;;;27.55
15144;BMP180;7672;50.834;6.286;2023-05-07T11:44:58;99769.97;;;27.45
15144;BMP180;7672;50.834;6.286;2023-05-07T11:47:25;99771.03;;;27.29
15144;BMP180;7672;50.834;6.286;2023-05-07T11:49:54;99775.50;;;27.13
15144;BMP180;7672;50.834;6.286;2023-05-07T11:52:23;99771.06;;;27.01
15144;BMP180;7672;50.834;6.286;2023-05-07T11:54:53;99783.06;;;26.88
15144;BMP180;7672;50.834;6.286;2023-05-07T11:57:26;99792.31;;;26.78
15144;BMP180;7672;50.834;6.286;2023-05-07T11:59:57;99797.16;;;26.70
15144;BMP180;7672;50.834;6.286;2023-05-07T12:02:25;99794.72;;;26.67
15144;BMP180;7672;50.834;6.286;2023-05-07T12:04:53;99789.72;;;26.64
15144;BMP180;7672;50.834;6.286;2023-05-07T12:07:24;99798.41;;;26.63
15144;BMP180;7672;50.834;6.286;2023-05-07T12:09:52;99800.44;;;26.58
15144;BMP180;7672;50.834;6.286;2023-05-07T12:12:20;99793.13;;;26.51
15144;BMP180;7672;50.834;6.286;2023-05-07T12:14:48;99804.88;;;26.42
15144;BMP180;7672;50.834;6.286;2023-05-07T12:17:16;99802.13;;;26.30
15144;BMP180;7672;50.834;6.286;2023-05-07T12:19:44;99809.31;;;26.25
15144;BMP180;7672;50.834;6.286;2023-05-07T12:22:12;99814.13;;;26.17
15144;BMP180;7672;50.834;6.286;2023-05-07T12:24:47;99809.72;;;26.04
15144;BMP180;7672;50.834;6.286;2023-05-07T12:27:16;99814.84;;;25.90
15144;BMP180;7672;50.834;6.286;2023-05-07T12:29:49;99817.94;;;25.81
15144;BMP180;7672;50.834;6.286;2023-05-07T12:32:18;99815.84;;;25.72
15144;BMP180;7672;50.834;6.286;2023-05-07T12:34:49;99805.97;;;25.63
15144;BMP180;7672;50.834;6.286;2023-05-07T12:37:24;99814.16;;;25.55
15144;BMP180;7672;50.834;6.286;2023-05-07T12:40:06;99816.44;;;25.46
15144;BMP180;7672;50.834;6.286;2023-05-07T12:42:37;99820.50;;;25.35
15144;BMP180;7672;50.834;6.286;2023-05-07T12:45:11;99823.72;;;25.23
15144;BMP180;7672;50.834;6.286;2023-05-07T12:47:44;99824.13;;;25.15
15144;BMP180;7672;50.834;6.286;2023-05-07T12:50:16;99825.13;;;25.13
15144;BMP180;7672;50.834;6.286;2023-05-07T12:52:45;99826.13;;;25.10
15144;BMP180;7672;50.834;6.286;2023-05-07T12:55:17;99819.44;;;25.06
15144;BMP180;7672;50.834;6.286;2023-05-07T12:57:49;99834.88;;;25.08
15144;BMP180;7672;50.834;6.286;2023-05-07T13:00:18;99833.84;;;25.12
15144;BMP180;7672;50.834;6.286;2023-05-07T13:02:45;99824.31;;;25.12
15144;BMP180;7672;50.834;6.286;2023-05-07T13:05:13;99825.97;;;25.13
15144;BMP180;7672;50.834;6.286;2023-05-07T13:07:52;99827.56;;;25.16
15144;BMP180;7672;50.834;6.286;2023-05-07T13:10:19;99825.03;;;25.14
15144;BMP180;7672;50.834;6.286;2023-05-07T13:12:46;99830.16;;;25.16
15144;BMP180;7672;50.834;6.286;2023-05-07T13:15:14;99837.56;;;25.22
15144;BMP180;7672;50.834;6.286;2023-05-07T13:17:41;99838.94;;;25.29
15144;BMP180;7672;50.834;6.286;2023-05-07T13:20:10;99845.13;;;25.42
15144;BMP180;7672;50.834;6.286;2023-05-07T13:22:39;99843.72;;;25.52
15144;BMP180;7672;50.834;6.286;2023-05-07T13:25:07;99852.41;;;25.66
15144;BMP180;7672;50.834;6.286;2023-05-07T13:27:34;99845.41;;;25.83
15144;BMP180;7672;50.834;6.286;2023-05-07T13:30:05;99849.56;;;26.01
15144;BMP180;7672;50.834;6.286;2023-05-07T13:32:32;99848.44;;;26.20
15144;BMP180;7672;50.834;6.286;2023-05-07T13:34:59;99848.84;;;26.44
15144;BMP180;7672;50.834;6.286;2023-05-07T13:37:27;99845.56;;;26.70
15144;BMP180;7672;50.834;6.286;2023-05-07T13:39:54;99845.97;;;26.91
15144;BMP180;7672;50.834;6.286;2023-05-07T13:42:21;99836.22;;;27.10
15144;BMP180;7672;50.834;6.286;2023-05-07T13:44:48;99839.31;;;27.29
15144;BMP180;7672;50.834;6.286;2023-05-07T13:47:15;99835.88;;;27.43
15144;BMP180;7672;50.834;6.286;2023-05-07T13:49:42;99831.69;;;27.54
15144;BMP180;7672;50.834;6.286;2023-05-07T13:52:09;99830.69;;;27.56
15144;BMP180;7672;50.834;6.286;2023-05-07T13:54:36;99828.94;;;27.57
15144;BMP180;7672;50.834;6.286;2023-05-07T13:57:03;99827.31;;;27.54
15144;BMP180;7672;50.834;6.286;2023-05-07T13:59:30;99831.78;;;27.52
15144;BMP180;7672;50.834;6.286;2023-05-07T14:01:57;99824.00;;;27.52
15144;BMP180;7672;50.834;6.286;2023-05-07T14:04:24;99826.59;;;27.52
15144;BMP180;7672;50.834;6.286;2023-05-07T14:06:51;99829.09;;;27.54
15144;BMP180;7672;50.834;6.286;2023-05-07T14:09:18;99828.09;;;27.56
15144;BMP180;7672;50.834;6.286;2023-05-07T14:11:45;99828.09;;;27.56
15144;BMP180;7672;50.834;6.286;2023-05-07T14:14:14;99834.97;;;27.57
15144;BMP180;7672;50.834;6.286;2023-05-07T14:16:41;99828.28;;;27.53
15144;BMP180;7672;50.834;6.286;2023-05-07T14:19:08;99829.66;;;27.45
15144;BMP180;7672;50.834;6.286;2023-05-07T14:21:35;99829.13;;;27.40
15144;BMP180;7672;50.834;6.286;2023-05-07T14:24:02;99838.84;;;27.37
15144;BMP180;7672;50.834;6.286;2023-05-07T14:26:29;99831.47;;;27.31
15144;BMP180;7672;50.834;6.286;2023-05-07T14:28:57;99828.78;;;27.18
15144;BMP180;7672;50.834;6.286;2023-05-07T14:31:25;99834.53;;;27.09
15144;BMP180;7672;50.834;6.286;2023-05-07T14:33:52;99827.22;;;27.02
15144;BMP180;7672;50.834;6.286;2023-05-07T14:36:20;99837.25;;;26.92
15144;BMP180;7672;50.834;6.286;2023-05-07T14:38:48;99831.97;;;26.80
15144;BMP180;7672;50.834;6.286;2023-05-07T14:41:16;99838.78;;;26.67
15144;BMP180;7672;50.834;6.286;2023-05-07T14:43:43;99842.94;;;26.56
15144;BMP180;7672;50.834;6.286;2023-05-07T14:46:17;99845.97;;;26.48